CheckWX is a tool to help pilots better visualize weather data.  It is not intended as a substitute for an official pre-flight weather briefing.

14:43:35 UTC

KOLS METAR
Nogales International Airport
Nogales, Arizona, USA
Current

50 mins ago

KOLS 201354Z AUTO 18003KT 10SM BKN035 12/04 A2984 RMK AO2 SLP058 T01220044
Observed
May-20 @ 13:54 UTC
Wind
  • 180° at 3 KTS
Visibility
10 SM
Flight Rules
VFR
Cloud Levels
  • Broken at 3,500' AGL
Temperature
12°C / 54°F
Dewpoint
C / 39°F
Humidity
58%
Altimeter
29.84" Hg
Pressure
1010.52 hPa
Previous

2 hours ago

KOLS 201254Z AUTO 00000KT 10SM CLR 11/04 A2984 RMK AO2 SLP055 T01060044
Observed
May-20 @ 12:54 UTC
Visibility
10 SM
Flight Rules
VFR
Cloud Levels
  • Clear skies
Temperature
11°C / 52°F
Dewpoint
C / 39°F
Humidity
62%
Altimeter
29.84" Hg
Pressure
1010.52 hPa
Previous

3 hours ago

KOLS 201154Z AUTO 18006KT 10SM CLR 11/05 A2983 RMK AO2 SLP052 T01060050 10156 20100 56004
Observed
May-20 @ 11:54 UTC
Wind
  • 180° at 6 KTS
Visibility
10 SM
Flight Rules
VFR
Cloud Levels
  • Clear skies
Temperature
11°C / 52°F
Dewpoint
C / 41°F
Humidity
67%
Altimeter
29.83" Hg
Pressure
1010.12 hPa